sensor_id;sensor_type;location;lat;lon;timestamp;temperature;humidity
44431;DHT22;30135;47.866;-4.222;2023-04-22T00:02:09;12.60;75.50
44431;DHT22;30135;47.866;-4.222;2023-04-22T00:04:39;12.60;75.60
44431;DHT22;30135;47.866;-4.222;2023-04-22T00:07:08;12.60;75.60
44431;DHT22;30135;47.866;-4.222;2023-04-22T00:09:34;12.50;75.60
44431;DHT22;30135;47.866;-4.222;2023-04-22T00:12:00;12.50;75.70
44431;DHT22;30135;47.866;-4.222;2023-04-22T00:14:27;12.50;75.70
44431;DHT22;30135;47.866;-4.222;2023-04-22T00:16:53;12.50;75.80
44431;DHT22;30135;47.866;-4.222;2023-04-22T00:19:19;12.50;75.80
44431;DHT22;30135;47.866;-4.222;2023-04-22T00:21:46;12.50;75.90
44431;DHT22;30135;47.866;-4.222;2023-04-22T00:24:18;12.50;76.00
44431;DHT22;30135;47.866;-4.222;2023-04-22T00:26:44;12.60;76.10
44431;DHT22;30135;47.866;-4.222;2023-04-22T00:29:10;12.50;76.10
44431;DHT22;30135;47.866;-4.222;2023-04-22T00:31:36;12.50;76.10
44431;DHT22;30135;47.866;-4.222;2023-04-22T00:34:02;12.50;76.20
44431;DHT22;30135;47.866;-4.222;2023-04-22T00:36:28;12.50;76.30
44431;DHT22;30135;47.866;-4.222;2023-04-22T00:38:55;12.50;76.30
44431;DHT22;30135;47.866;-4.222;2023-04-22T00:41:22;12.50;76.40
44431;DHT22;30135;47.866;-4.222;2023-04-22T00:43:49;12.50;76.60
44431;DHT22;30135;47.866;-4.222;2023-04-22T00:46:16;12.50;76.80
44431;DHT22;30135;47.866;-4.222;2023-04-22T00:48:43;12.50;77.00
44431;DHT22;30135;47.866;-4.222;2023-04-22T00:51:10;12.50;77.20
44431;DHT22;30135;47.866;-4.222;2023-04-22T00:53:35;12.50;77.40
44431;DHT22;30135;47.866;-4.222;2023-04-22T00:56:02;12.50;77.60
44431;DHT22;30135;47.866;-4.222;2023-04-22T00:58:28;12.40;77.70
44431;DHT22;30135;47.866;-4.222;2023-04-22T01:00:55;12.50;77.90
44431;DHT22;30135;47.866;-4.222;2023-04-22T01:03:22;12.40;78.00
44431;DHT22;30135;47.866;-4.222;2023-04-22T01:05:49;12.40;78.20
44431;DHT22;30135;47.866;-4.222;2023-04-22T01:08:15;12.40;78.40
44431;DHT22;30135;47.866;-4.222;2023-04-22T01:10:42;12.40;78.60
44431;DHT22;30135;47.866;-4.222;2023-04-22T01:13:08;12.40;78.80
44431;DHT22;30135;47.866;-4.222;2023-04-22T01:15:34;12.40;79.00
44431;DHT22;30135;47.866;-4.222;2023-04-22T01:18:01;12.30;79.10
44431;DHT22;30135;47.866;-4.222;2023-04-22T01:20:28;12.30;79.40
44431;DHT22;30135;47.866;-4.222;2023-04-22T01:22:55;12.30;79.50
44431;DHT22;30135;47.866;-4.222;2023-04-22T01:25:27;12.30;79.80
44431;DHT22;30135;47.866;-4.222;2023-04-22T01:27:54;12.30;79.80
44431;DHT22;30135;47.866;-4.222;2023-04-22T01:30:21;12.30;79.90
44431;DHT22;30135;47.866;-4.222;2023-04-22T01:32:47;12.40;80.10
44431;DHT22;30135;47.866;-4.222;2023-04-22T01:35:13;12.30;80.10
44431;DHT22;30135;47.866;-4.222;2023-04-22T01:37:39;12.30;80.10
44431;DHT22;30135;47.866;-4.222;2023-04-22T01:40:05;12.30;80.10
44431;DHT22;30135;47.866;-4.222;2023-04-22T01:42:34;12.30;80.20
44431;DHT22;30135;47.866;-4.222;2023-04-22T01:45:01;12.30;80.30
44431;DHT22;30135;47.866;-4.222;2023-04-22T01:47:27;12.30;80.40
44431;DHT22;30135;47.866;-4.222;2023-04-22T01:50:00;12.30;80.50
44431;DHT22;30135;47.866;-4.222;2023-04-22T01:52:40;12.40;80.60
44431;DHT22;30135;47.866;-4.222;2023-04-22T01:55:07;12.30;80.70
44431;DHT22;30135;47.866;-4.222;2023-04-22T01:57:34;12.30;80.80
44431;DHT22;30135;47.866;-4.222;2023-04-22T02:00:00;12.30;81.10
44431;DHT22;30135;47.866;-4.222;2023-04-22T02:02:26;12.30;81.20
44431;DHT22;30135;47.866;-4.222;2023-04-22T02:04:52;12.30;81.50
44431;DHT22;30135;47.866;-4.222;2023-04-22T02:07:21;12.30;81.60
44431;DHT22;30135;47.866;-4.222;2023-04-22T02:09:47;12.30;81.80
44431;DHT22;30135;47.866;-4.222;2023-04-22T02:12:14;12.30;82.00
44431;DHT22;30135;47.866;-4.222;2023-04-22T02:14:40;12.30;82.30
44431;DHT22;30135;47.866;-4.222;2023-04-22T02:17:06;12.30;82.40
44431;DHT22;30135;47.866;-4.222;2023-04-22T02:19:32;12.30;82.60
44431;DHT22;30135;47.866;-4.222;2023-04-22T02:21:58;12.30;82.80
44431;DHT22;30135;47.866;-4.222;2023-04-22T02:24:24;12.40;83.00
44431;DHT22;30135;47.866;-4.222;2023-04-22T02:26:51;12.40;83.20
44431;DHT22;30135;47.866;-4.222;2023-04-22T02:29:17;12.30;83.40
44431;DHT22;30135;47.866;-4.222;2023-04-22T02:31:43;12.40;83.60
44431;DHT22;30135;47.866;-4.222;2023-04-22T02:34:09;12.40;83.80
44431;DHT22;30135;47.866;-4.222;2023-04-22T02:36:35;12.40;83.90
44431;DHT22;30135;47.866;-4.222;2023-04-22T02:39:01;12.40;84.10
44431;DHT22;30135;47.866;-4.222;2023-04-22T02:41:28;12.40;84.30
44431;DHT22;30135;47.866;-4.222;2023-04-22T02:43:55;12.40;84.50
44431;DHT22;30135;47.866;-4.222;2023-04-22T02:46:21;12.40;84.70
44431;DHT22;30135;47.866;-4.222;2023-04-22T02:48:46;12.40;84.90
44431;DHT22;30135;47.866;-4.222;2023-04-22T02:51:14;12.40;85.00
44431;DHT22;30135;47.866;-4.222;2023-04-22T02:53:40;12.40;85.30
44431;DHT22;30135;47.866;-4.222;2023-04-22T02:56:06;12.40;85.40
44431;DHT22;30135;47.866;-4.222;2023-04-22T02:58:33;12.40;85.60
44431;DHT22;30135;47.866;-4.222;2023-04-22T03:00:59;12.40;85.70
44431;DHT22;30135;47.866;-4.222;2023-04-22T03:03:25;12.40;85.80
44431;DHT22;30135;47.866;-4.222;2023-04-22T03:05:52;12.40;85.90
44431;DHT22;30135;47.866;-4.222;2023-04-22T03:08:18;12.40;85.80
44431;DHT22;30135;47.866;-4.222;2023-04-22T03:10:45;12.40;85.80
44431;DHT22;30135;47.866;-4.222;2023-04-22T03:13:14;12.40;85.90
44431;DHT22;30135;47.866;-4.222;2023-04-22T03:15:40;12.40;86.10
44431;DHT22;30135;47.866;-4.222;2023-04-22T03:18:07;12.40;86.20
44431;DHT22;30135;47.866;-4.222;2023-04-22T03:20:34;12.40;86.30
44431;DHT22;30135;47.866;-4.222;2023-04-22T03:23:00;12.40;86.40
44431;DHT22;30135;47.866;-4.222;2023-04-22T03:25:27;12.40;86.50
44431;DHT22;30135;47.866;-4.222;2023-04-22T03:27:53;12.30;86.50
44431;DHT22;30135;47.866;-4.222;2023-04-22T03:30:19;12.30;86.70
44431;DHT22;30135;47.866;-4.222;2023-04-22T03:32:45;12.30;86.80
44431;DHT22;30135;47.866;-4.222;2023-04-22T03:35:11;12.30;86.90
44431;DHT22;30135;47.866;-4.222;2023-04-22T03:37:38;12.30;87.10
44431;DHT22;30135;47.866;-4.222;2023-04-22T03:40:04;12.30;87.10
44431;DHT22;30135;47.866;-4.222;2023-04-22T03:42:32;12.30;87.10
44431;DHT22;30135;47.866;-4.222;2023-04-22T03:44:58;12.30;87.00
44431;DHT22;30135;47.866;-4.222;2023-04-22T03:47:24;12.30;86.90
44431;DHT22;30135;47.866;-4.222;2023-04-22T03:49:50;12.30;86.80
44431;DHT22;30135;47.866;-4.222;2023-04-22T03:52:16;12.20;86.60
44431;DHT22;30135;47.866;-4.222;2023-04-22T03:54:42;12.20;86.70
44431;DHT22;30135;47.866;-4.222;2023-04-22T03:57:07;12.20;86.80
44431;DHT22;30135;47.866;-4.222;2023-04-22T03:59:33;12.20;86.90
44431;DHT22;30135;47.866;-4.222;2023-04-22T04:02:00;12.20;86.90
44431;DHT22;30135;47.866;-4.222;2023-04-22T04:04:26;12.20;87.10
44431;DHT22;30135;47.866;-4.222;2023-04-22T04:06:54;12.10;87.10
44431;DHT22;30135;47.866;-4.222;2023-04-22T04:09:21;12.10;87.20
44431;DHT22;30135;47.866;-4.222;2023-04-22T04:11:47;12.10;87.30
44431;DHT22;30135;47.866;-4.222;2023-04-22T04:14:13;12.10;87.50
44431;DHT22;30135;47.866;-4.222;2023-04-22T04:16:39;12.10;87.60
44431;DHT22;30135;47.866;-4.222;2023-04-22T04:19:05;12.10;87.70
44431;DHT22;30135;47.866;-4.222;2023-04-22T04:21:31;12.10;87.90
44431;DHT22;30135;47.866;-4.222;2023-04-22T04:23:58;12.00;88.00
44431;DHT22;30135;47.866;-4.222;2023-04-22T04:26:24;12.00;88.10
44431;DHT22;30135;47.866;-4.222;2023-04-22T04:28:53;12.00;88.30
44431;DHT22;30135;47.866;-4.222;2023-04-22T04:31:20;12.00;88.50
44431;DHT22;30135;47.866;-4.222;2023-04-22T04:33:46;12.00;88.60
44431;DHT22;30135;47.866;-4.222;2023-04-22T04:36:12;12.00;88.80
44431;DHT22;30135;47.866;-4.222;2023-04-22T04:38:38;12.00;89.00
44431;DHT22;30135;47.866;-4.222;2023-04-22T04:41:04;12.00;89.20
44431;DHT22;30135;47.866;-4.222;2023-04-22T04:43:30;12.00;89.30
44431;DHT22;30135;47.866;-4.222;2023-04-22T04:45:56;12.00;89.30
44431;DHT22;30135;47.866;-4.222;2023-04-22T04:48:22;12.00;89.50
44431;DHT22;30135;47.866;-4.222;2023-04-22T04:50:49;12.00;89.60
44431;DHT22;30135;47.866;-4.222;2023-04-22T04:53:19;12.00;89.70
44431;DHT22;30135;47.866;-4.222;2023-04-22T04:55:48;12.00;89.70
44431;DHT22;30135;47.866;-4.222;2023-04-22T04:58:15;12.00;89.90
44431;DHT22;30135;47.866;-4.222;2023-04-22T05:00:41;12.00;90.00
44431;DHT22;30135;47.866;-4.222;2023-04-22T05:03:07;12.00;90.10
44431;DHT22;30135;47.866;-4.222;2023-04-22T05:05:33;12.00;90.10
44431;DHT22;30135;47.866;-4.222;2023-04-22T05:07:59;12.00;90.10
44431;DHT22;30135;47.866;-4.222;2023-04-22T05:10:25;12.00;90.20
44431;DHT22;30135;47.866;-4.222;2023-04-22T05:12:51;12.00;90.20
44431;DHT22;30135;47.866;-4.222;2023-04-22T05:15:17;12.00;90.30
44431;DHT22;30135;47.866;-4.222;2023-04-22T05:17:43;12.00;90.30
44431;DHT22;30135;47.866;-4.222;2023-04-22T05:20:10;12.00;90.30
44431;DHT22;30135;47.866;-4.222;2023-04-22T05:22:36;12.00;90.30
44431;DHT22;30135;47.866;-4.222;2023-04-22T05:25:03;12.00;90.40
44431;DHT22;30135;47.866;-4.222;2023-04-22T05:27:29;12.00;90.50
44431;DHT22;30135;47.866;-4.222;2023-04-22T05:29:55;12.00;90.90
44431;DHT22;30135;47.866;-4.222;2023-04-22T05:32:21;12.00;90.60
44431;DHT22;30135;47.866;-4.222;2023-04-22T05:34:47;12.00;90.60
44431;DHT22;30135;47.866;-4.222;2023-04-22T05:37:13;12.00;90.60
44431;DHT22;30135;47.866;-4.222;2023-04-22T05:39:40;11.90;90.60
44431;DHT22;30135;47.866;-4.222;2023-04-22T05:42:08;11.90;90.70
44431;DHT22;30135;47.866;-4.222;2023-04-22T05:44:34;11.90;90.70
44431;DHT22;30135;47.866;-4.222;2023-04-22T05:47:00;11.90;90.80
44431;DHT22;30135;47.866;-4.222;2023-04-22T05:49:26;11.90;90.90
44431;DHT22;30135;47.866;-4.222;2023-04-22T05:51:52;11.90;90.90
44431;DHT22;30135;47.866;-4.222;2023-04-22T05:54:18;11.90;90.90
44431;DHT22;30135;47.866;-4.222;2023-04-22T05:56:44;11.90;90.80
44431;DHT22;30135;47.866;-4.222;2023-04-22T05:59:10;11.90;90.90
44431;DHT22;30135;47.866;-4.222;2023-04-22T06:01:36;11.90;90.90
44431;DHT22;30135;47.866;-4.222;2023-04-22T06:04:03;11.80;90.90
44431;DHT22;30135;47.866;-4.222;2023-04-22T06:06:32;11.90;91.00
44431;DHT22;30135;47.866;-4.222;2023-04-22T06:08:58;11.80;91.00
44431;DHT22;30135;47.866;-4.222;2023-04-22T06:11:24;11.90;91.20
44431;DHT22;30135;47.866;-4.222;2023-04-22T06:13:50;11.90;91.20
44431;DHT22;30135;47.866;-4.222;2023-04-22T06:16:16;11.90;91.20
44431;DHT22;30135;47.866;-4.222;2023-04-22T06:18:42;11.90;91.20
44431;DHT22;30135;47.866;-4.222;2023-04-22T06:21:08;11.90;91.30
44431;DHT22;30135;47.866;-4.222;2023-04-22T06:23:34;11.90;91.30
44431;DHT22;30135;47.866;-4.222;2023-04-22T06:26:00;11.90;91.40
44431;DHT22;30135;47.866;-4.222;2023-04-22T06:28:26;11.90;91.40
44431;DHT22;30135;47.866;-4.222;2023-04-22T06:30:53;11.90;91.50
44431;DHT22;30135;47.866;-4.222;2023-04-22T06:33:19;11.90;91.50
44431;DHT22;30135;47.866;-4.222;2023-04-22T06:35:45;12.00;91.60
44431;DHT22;30135;47.866;-4.222;2023-04-22T06:38:11;12.00;91.60
44431;DHT22;30135;47.866;-4.222;2023-04-22T06:40:37;12.00;91.60
44431;DHT22;30135;47.866;-4.222;2023-04-22T06:43:03;12.00;91.70
44431;DHT22;30135;47.866;-4.222;2023-04-22T06:45:29;12.00;91.70
44431;DHT22;30135;47.866;-4.222;2023-04-22T06:47:55;12.00;91.80
44431;DHT22;30135;47.866;-4.222;2023-04-22T06:50:21;12.10;91.90
44431;DHT22;30135;47.866;-4.222;2023-04-22T06:52:47;12.00;92.00
44431;DHT22;30135;47.866;-4.222;2023-04-22T06:55:13;12.10;92.00
44431;DHT22;30135;47.866;-4.222;2023-04-22T06:57:39;12.10;92.10
44431;DHT22;30135;47.866;-4.222;2023-04-22T07:00:06;12.10;92.20
44431;DHT22;30135;47.866;-4.222;2023-04-22T07:02:36;12.20;92.30
44431;DHT22;30135;47.866;-4.222;2023-04-22T07:05:02;12.20;92.40
44431;DHT22;30135;47.866;-4.222;2023-04-22T07:07:28;12.20;92.50
44431;DHT22;30135;47.866;-4.222;2023-04-22T07:09:54;12.30;92.50
44431;DHT22;30135;47.866;-4.222;2023-04-22T07:12:20;12.30;92.50
44431;DHT22;30135;47.866;-4.222;2023-04-22T07:14:48;12.40;92.60
44431;DHT22;30135;47.866;-4.222;2023-04-22T07:17:20;12.30;92.60
44431;DHT22;30135;47.866;-4.222;2023-04-22T07:19:47;12.40;92.60
44431;DHT22;30135;47.866;-4.222;2023-04-22T07:22:13;12.40;92.60
44431;DHT22;30135;47.866;-4.222;2023-04-22T07:24:40;12.40;92.60
44431;DHT22;30135;47.866;-4.222;2023-04-22T07:27:06;12.40;92.50
44431;DHT22;30135;47.866;-4.222;2023-04-22T07:29:32;12.40;92.60
44431;DHT22;30135;47.866;-4.222;2023-04-22T07:31:58;12.40;92.60
44431;DHT22;30135;47.866;-4.222;2023-04-22T07:34:24;12.50;92.60
44431;DHT22;30135;47.866;-4.222;2023-04-22T07:36:50;12.50;92.60
44431;DHT22;30135;47.866;-4.222;2023-04-22T07:39:16;12.50;92.70
44431;DHT22;30135;47.866;-4.222;2023-04-22T07:41:42;12.50;92.70
44431;DHT22;30135;47.866;-4.222;2023-04-22T07:44:08;12.60;92.90
44431;DHT22;30135;47.866;-4.222;2023-04-22T07:46:36;12.60;93.00
44431;DHT22;30135;47.866;-4.222;2023-04-22T07:49:02;12.60;93.20
44431;DHT22;30135;47.866;-4.222;2023-04-22T07:51:28;12.60;93.20
44431;DHT22;30135;47.866;-4.222;2023-04-22T07:53:54;12.70;93.20
44431;DHT22;30135;47.866;-4.222;2023-04-22T07:56:20;12.70;93.30
44431;DHT22;30135;47.866;-4.222;2023-04-22T07:58:47;12.70;93.20
44431;DHT22;30135;47.866;-4.222;2023-04-22T08:01:13;12.80;93.20
44431;DHT22;30135;47.866;-4.222;2023-04-22T08:03:39;12.80;93.10
44431;DHT22;30135;47.866;-4.222;2023-04-22T08:06:05;12.80;93.00
44431;DHT22;30135;47.866;-4.222;2023-04-22T08:08:31;12.90;92.80
44431;DHT22;30135;47.866;-4.222;2023-04-22T08:10:57;12.90;92.50
44431;DHT22;30135;47.866;-4.222;2023-04-22T08:13:23;12.90;92.30
44431;DHT22;30135;47.866;-4.222;2023-04-22T08:15:49;12.90;92.20
44431;DHT22;30135;47.866;-4.222;2023-04-22T08:18:15;12.90;92.10
44431;DHT22;30135;47.866;-4.222;2023-04-22T08:20:41;13.00;92.00
44431;DHT22;30135;47.866;-4.222;2023-04-22T08:23:07;13.00;91.80
44431;DHT22;30135;47.866;-4.222;2023-04-22T08:25:33;13.00;91.80
44431;DHT22;30135;47.866;-4.222;2023-04-22T08:28:00;13.10;91.80
44431;DHT22;30135;47.866;-4.222;2023-04-22T08:30:26;13.10;91.70
44431;DHT22;30135;47.866;-4.222;2023-04-22T08:32:52;13.10;91.60
44431;DHT22;30135;47.866;-4.222;2023-04-22T08:35:18;13.10;91.50
44431;DHT22;30135;47.866;-4.222;2023-04-22T08:37:44;13.20;91.60
44431;DHT22;30135;47.866;-4.222;2023-04-22T08:40:11;13.20;91.50
44431;DHT22;30135;47.866;-4.222;2023-04-22T08:42:39;13.20;91.40
44431;DHT22;30135;47.866;-4.222;2023-04-22T08:45:05;13.30;91.30
44431;DHT22;30135;47.866;-4.222;2023-04-22T08:47:31;13.30;91.30
44431;DHT22;30135;47.866;-4.222;2023-04-22T08:50:01;13.30;91.30
44431;DHT22;30135;47.866;-4.222;2023-04-22T08:52:32;13.40;91.60
44431;DHT22;30135;47.866;-4.222;2023-04-22T08:54:58;13.40;91.30
44431;DHT22;30135;47.866;-4.222;2023-04-22T08:57:25;13.50;91.30
44431;DHT22;30135;47.866;-4.222;2023-04-22T08:59:52;13.50;91.40
44431;DHT22;30135;47.866;-4.222;2023-04-22T09:02:22;13.60;91.40
44431;DHT22;30135;47.866;-4.222;2023-04-22T09:04:50;13.60;91.40
44431;DHT22;30135;47.866;-4.222;2023-04-22T09:07:23;13.70;91.40
44431;DHT22;30135;47.866;-4.222;2023-04-22T09:09:51;13.80;91.40
44431;DHT22;30135;47.866;-4.222;2023-04-22T09:12:18;13.80;91.40
44431;DHT22;30135;47.866;-4.222;2023-04-22T09:14:44;13.90;91.50
44431;DHT22;30135;47.866;-4.222;2023-04-22T09:17:13;13.90;91.60
44431;DHT22;30135;47.866;-4.222;2023-04-22T09:19:41;14.00;91.70
44431;DHT22;30135;47.866;-4.222;2023-04-22T09:22:11;14.00;91.60
44431;DHT22;30135;47.866;-4.222;2023-04-22T09:24:48;14.10;91.60
44431;DHT22;30135;47.866;-4.222;2023-04-22T09:27:16;14.10;91.80
44431;DHT22;30135;47.866;-4.222;2023-04-22T09:29:50;14.10;91.80
44431;DHT22;30135;47.866;-4.222;2023-04-22T09:32:17;14.20;91.90
44431;DHT22;30135;47.866;-4.222;2023-04-22T09:34:53;14.20;91.70
44431;DHT22;30135;47.866;-4.222;2023-04-22T09:37:28;14.20;91.80
44431;DHT22;30135;47.866;-4.222;2023-04-22T09:39:55;14.30;91.80
44431;DHT22;30135;47.866;-4.222;2023-04-22T09:42:21;14.30;91.80
44431;DHT22;30135;47.866;-4.222;2023-04-22T09:44:49;14.40;91.70
44431;DHT22;30135;47.866;-4.222;2023-04-22T09:47:20;14.40;91.70
44431;DHT22;30135;47.866;-4.222;2023-04-22T09:49:48;14.40;91.90
44431;DHT22;30135;47.866;-4.222;2023-04-22T09:52:22;14.40;91.80
44431;DHT22;30135;47.866;-4.222;2023-04-22T09:54:54;14.50;91.90
44431;DHT22;30135;47.866;-4.222;2023-04-22T09:57:20;14.40;91.90
44431;DHT22;30135;47.866;-4.222;2023-04-22T09:59:49;14.50;92.10
44431;DHT22;30135;47.866;-4.222;2023-04-22T10:02:17;14.50;92.20
44431;DHT22;30135;47.866;-4.222;2023-04-22T10:04:43;14.60;92.20
44431;DHT22;30135;47.866;-4.222;2023-04-22T10:07:12;14.60;92.20
44431;DHT22;30135;47.866;-4.222;2023-04-22T10:09:39;14.60;92.30
44431;DHT22;30135;47.866;-4.222;2023-04-22T10:12:06;14.70;92.30
44431;DHT22;30135;47.866;-4.222;2023-04-22T10:14:31;14.70;92.60
44431;DHT22;30135;47.866;-4.222;2023-04-22T10:17:01;14.70;92.20
44431;DHT22;30135;47.866;-4.222;2023-04-22T10:19:28;14.70;92.30
44431;DHT22;30135;47.866;-4.222;2023-04-22T10:21:56;14.70;92.30
44431;DHT22;30135;47.866;-4.222;2023-04-22T10:24:26;14.70;92.30
44431;DHT22;30135;47.866;-4.222;2023-04-22T10:26:57;14.80;92.50
44431;DHT22;30135;47.866;-4.222;2023-04-22T10:29:33;14.80;92.50
44431;DHT22;30135;47.866;-4.222;2023-04-22T10:34:45;14.90;92.90
44431;DHT22;30135;47.866;-4.222;2023-04-22T10:37:13;15.00;92.70
44431;DHT22;30135;47.866;-4.222;2023-04-22T10:40:15;15.00;92.60
44431;DHT22;30135;47.866;-4.222;2023-04-22T10:42:47;15.10;92.70
44431;DHT22;30135;47.866;-4.222;2023-04-22T10:45:15;15.10;92.60
44431;DHT22;30135;47.866;-4.222;2023-04-22T10:47:42;15.10;92.50
44431;DHT22;30135;47.866;-4.222;2023-04-22T10:52:56;15.30;92.50
44431;DHT22;30135;47.866;-4.222;2023-04-22T10:55:24;15.30;92.40
44431;DHT22;30135;47.866;-4.222;2023-04-22T10:57:51;15.40;92.30
44431;DHT22;30135;47.866;-4.222;2023-04-22T11:00:30;15.40;92.20
44431;DHT22;30135;47.866;-4.222;2023-04-22T11:03:11;15.40;92.10
44431;DHT22;30135;47.866;-4.222;2023-04-22T11:05:44;15.40;92.20
44431;DHT22;30135;47.866;-4.222;2023-04-22T11:08:18;15.40;92.10
44431;DHT22;30135;47.866;-4.222;2023-04-22T11:10:50;15.40;91.90
44431;DHT22;30135;47.866;-4.222;2023-04-22T11:13:18;15.30;92.10
44431;DHT22;30135;47.866;-4.222;2023-04-22T11:15:54;15.40;92.20
44431;DHT22;30135;47.866;-4.222;2023-04-22T11:18:24;15.40;92.20
44431;DHT22;30135;47.866;-4.222;2023-04-22T11:20:51;15.40;92.10
44431;DHT22;30135;47.866;-4.222;2023-04-22T11:23:27;15.40;92.10
44431;DHT22;30135;47.866;-4.222;2023-04-22T11:25:54;15.40;92.20
44431;DHT22;30135;47.866;-4.222;2023-04-22T11:28:22;15.40;92.20
44431;DHT22;30135;47.866;-4.222;2023-04-22T11:30:48;15.40;92.10
44431;DHT22;30135;47.866;-4.222;2023-04-22T11:33:16;15.50;92.10
44431;DHT22;30135;47.866;-4.222;2023-04-22T11:35:42;15.50;92.10
44431;DHT22;30135;47.866;-4.222;2023-04-22T11:38:08;15.50;92.10
44431;DHT22;30135;47.866;-4.222;2023-04-22T11:43:04;15.60;92.20
44431;DHT22;30135;47.866;-4.222;2023-04-22T11:45:32;15.70;92.10
44431;DHT22;30135;47.866;-4.222;2023-04-22T11:48:01;15.70;92.30
44431;DHT22;30135;47.866;-4.222;2023-04-22T11:50:30;15.70;92.00
44431;DHT22;30135;47.866;-4.222;2023-04-22T11:53:03;15.80;92.00
44431;DHT22;30135;47.866;-4.222;2023-04-22T11:55:38;15.90;91.90
44431;DHT22;30135;47.866;-4.222;2023-04-22T11:58:07;15.90;91.80
44431;DHT22;30135;47.866;-4.222;2023-04-22T12:00:39;16.00;91.30
44431;DHT22;30135;47.866;-4.222;2023-04-22T12:03:16;16.10;91.50
44431;DHT22;30135;47.866;-4.222;2023-04-22T12:05:54;16.20;91.10
44431;DHT22;30135;47.866;-4.222;2023-04-22T12:08:32;16.30;90.80
44431;DHT22;30135;47.866;-4.222;2023-04-22T12:11:06;16.30;90.30
44431;DHT22;30135;47.866;-4.222;2023-04-22T12:16:05;16.40;89.90
44431;DHT22;30135;47.866;-4.222;2023-04-22T12:18:38;16.30;89.80
44431;DHT22;30135;47.866;-4.222;2023-04-22T12:23:45;16.20;89.00
44431;DHT22;30135;47.866;-4.222;2023-04-22T12:26:13;16.10;89.40
44431;DHT22;30135;47.866;-4.222;2023-04-22T12:28:41;16.00;89.40
44431;DHT22;30135;47.866;-4.222;2023-04-22T12:31:08;15.90;89.60
44431;DHT22;30135;47.866;-4.222;2023-04-22T12:33:36;15.90;90.00
44431;DHT22;30135;47.866;-4.222;2023-04-22T12:36:03;15.80;90.10
44431;DHT22;30135;47.866;-4.222;2023-04-22T12:38:30;15.70;90.30
44431;DHT22;30135;47.866;-4.222;2023-04-22T12:40:57;15.60;90.50
44431;DHT22;30135;47.866;-4.222;2023-04-22T12:43:23;15.50;90.70
44431;DHT22;30135;47.866;-4.222;2023-04-22T12:45:49;15.50;90.90
44431;DHT22;30135;47.866;-4.222;2023-04-22T12:48:16;15.40;91.20
44431;DHT22;30135;47.866;-4.222;2023-04-22T12:50:42;15.30;91.30
44431;DHT22;30135;47.866;-4.222;2023-04-22T12:53:08;15.30;91.20
44431;DHT22;30135;47.866;-4.222;2023-04-22T12:55:35;15.20;91.20
44431;DHT22;30135;47.866;-4.222;2023-04-22T12:58:01;15.10;91.20
44431;DHT22;30135;47.866;-4.222;2023-04-22T13:00:28;15.00;91.10
44431;DHT22;30135;47.866;-4.222;2023-04-22T13:02:57;14.90;91.00
44431;DHT22;30135;47.866;-4.222;2023-04-22T13:05:24;14.90;91.20
44431;DHT22;30135;47.866;-4.222;2023-04-22T13:07:50;14.90;91.30
44431;DHT22;30135;47.866;-4.222;2023-04-22T13:10:17;14.80;91.30
44431;DHT22;30135;47.866;-4.222;2023-04-22T13:12:44;14.80;91.50
44431;DHT22;30135;47.866;-4.222;2023-04-22T13:15:10;14.70;91.80
44431;DHT22;30135;47.866;-4.222;2023-04-22T13:17:39;14.70;92.20
44431;DHT22;30135;47.866;-4.222;2023-04-22T13:20:06;14.80;92.50
44431;DHT22;30135;47.866;-4.222;2023-04-22T13:22:34;14.80;92.90
44431;DHT22;30135;47.866;-4.222;2023-04-22T13:25:01;14.80;93.30
44431;DHT22;30135;47.866;-4.222;2023-04-22T13:27:27;14.90;93.80
44431;DHT22;30135;47.866;-4.222;2023-04-22T13:29:53;15.00;94.00
44431;DHT22;30135;47.866;-4.222;2023-04-22T13:32:20;15.00;94.20
44431;DHT22;30135;47.866;-4.222;2023-04-22T13:34:45;15.00;94.50
44431;DHT22;30135;47.866;-4.222;2023-04-22T13:37:12;15.00;94.60
44431;DHT22;30135;47.866;-4.222;2023-04-22T13:39:44;15.10;94.90
44431;DHT22;30135;47.866;-4.222;2023-04-22T13:42:10;15.20;95.00
44431;DHT22;30135;47.866;-4.222;2023-04-22T13:44:36;15.20;95.10
44431;DHT22;30135;47.866;-4.222;2023-04-22T13:47:02;15.20;95.30
44431;DHT22;30135;47.866;-4.222;2023-04-22T13:49:28;15.30;95.40
44431;DHT22;30135;47.866;-4.222;2023-04-22T13:51:54;15.40;95.50
44431;DHT22;30135;47.866;-4.222;2023-04-22T13:54:21;15.40;95.60
44431;DHT22;30135;47.866;-4.222;2023-04-22T13:56:47;15.50;95.70
44431;DHT22;30135;47.866;-4.222;2023-04-22T13:59:14;15.50;95.60
44431;DHT22;30135;47.866;-4.222;2023-04-22T14:01:40;15.60;95.70
44431;DHT22;30135;47.866;-4.222;2023-04-22T14:04:07;15.60;95.70
44431;DHT22;30135;47.866;-4.222;2023-04-22T14:06:33;15.60;95.80
44431;DHT22;30135;47.866;-4.222;2023-04-22T14:08:59;15.70;96.00
44431;DHT22;30135;47.866;-4.222;2023-04-22T14:11:25;15.70;96.10
44431;DHT22;30135;47.866;-4.222;2023-04-22T14:13:52;15.80;95.90
44431;DHT22;30135;47.866;-4.222;2023-04-22T14:16:18;15.80;95.70
44431;DHT22;30135;47.866;-4.222;2023-04-22T14:18:44;15.80;95.80
44431;DHT22;30135;47.866;-4.222;2023-04-22T14:21:11;15.80;95.60
44431;DHT22;30135;47.866;-4.222;2023-04-22T14:23:38;15.70;95.20
44431;DHT22;30135;47.866;-4.222;2023-04-22T14:26:06;15.80;95.20
44431;DHT22;30135;47.866;-4.222;2023-04-22T14:28:35;15.80;95.10
44431;DHT22;30135;47.866;-4.222;2023-04-22T14:31:02;15.80;94.70
44431;DHT22;30135;47.866;-4.222;2023-04-22T14:33:28;15.80;94.50
44431;DHT22;30135;47.866;-4.222;2023-04-22T14:35:55;15.80;94.50
44431;DHT22;30135;47.866;-4.222;2023-04-22T14:38:22;15.80;94.30
44431;DHT22;30135;47.866;-4.222;2023-04-22T14:40:49;15.80;94.20
44431;DHT22;30135;47.866;-4.222;2023-04-22T14:43:16;15.80;94.20
44431;DHT22;30135;47.866;-4.222;2023-04-22T14:45:42;15.90;94.20
44431;DHT22;30135;47.866;-4.222;2023-04-22T14:48:09;15.80;94.20
44431;DHT22;30135;47.866;-4.222;2023-04-22T14:50:35;15.90;94.20
44431;DHT22;30135;47.866;-4.222;2023-04-22T14:53:01;15.80;94.20
44431;DHT22;30135;47.866;-4.222;2023-04-22T14:55:28;15.80;94.20
44431;DHT22;30135;47.866;-4.222;2023-04-22T14:57:56;15.80;94.20
44431;DHT22;30135;47.866;-4.222;2023-04-22T15:00:24;15.80;94.20
44431;DHT22;30135;47.866;-4.222;2023-04-22T15:02:55;15.80;94.20
44431;DHT22;30135;47.866;-4.222;2023-04-22T15:05:21;15.80;94.30
44431;DHT22;30135;47.866;-4.222;2023-04-22T15:07:49;15.80;94.40
44431;DHT22;30135;47.866;-4.222;2023-04-22T15:10:15;15.80;94.50
44431;DHT22;30135;47.866;-4.222;2023-04-22T15:12:42;15.90;94.50
44431;DHT22;30135;47.866;-4.222;2023-04-22T15:15:09;15.90;94.50
44431;DHT22;30135;47.866;-4.222;2023-04-22T15:17:39;15.90;94.40
44431;DHT22;30135;47.866;-4.222;2023-04-22T15:20:06;15.90;94.40
44431;DHT22;30135;47.866;-4.222;2023-04-22T15:22:32;15.90;94.40
44431;DHT22;30135;47.866;-4.222;2023-04-22T15:24:58;15.90;94.30
44431;DHT22;30135;47.866;-4.222;2023-04-22T15:27:25;15.90;94.40
44431;DHT22;30135;47.866;-4.222;2023-04-22T15:29:51;15.90;94.40